North Central West Virginia Airport
KCKB : rendu visible

Aérodrome :











RETROUVEZ-NOUS SUR...

 
LOGIN :

S'inscrire | Disclaimer

   EN    FR    IT 

 









Légende :    VFR   VFR Marginal   IFR   IFR Intensif   IFR Très Intensif
Visi : 
Plafond : 
>= 8 km
>= 3000ft
5 à 8 km
1000 à 3000 ft
1500m à 5 km
500 à 1000 ft
800 à 1500m
200 à 500 ft
< 800m
< 200 ft
Symboles :   Orages  Brouillard  Fortes neiges  Fortes précipitations  Vent > 20 kt






- Altitude de l'aérodrome : 1217 ft
- Code IATA : CKB


KCKB - North Central West Virginia

DERNIER METAR :
  • 150653Z AUTO 00000KT 10SM CLR M01/M05 A3027 RMK AO2 SLP254 T10111050

METARs EXPIRÉS :
  • 150553Z AUTO 00000KT 10SM CLR M01/M05 A3027 RMK AO2 SLP254 T10111050 10050 21011 58002
  • 150453Z AUTO 00000KT 10SM CLR M01/M04 A3028 RMK AO2 SLP256 T10061044 400941078

TAF KCKB
Valide du 15 à 06h jusqu'au 16 à 06h UTC


150527Z 1506/1606 00000KT P6SM FEW060
FM151600 27005KT P6SM FEW200
FM160400 02004KT P6SM SCT020



MET'MAP, la Météo Aéronautique d'un coup d'oeil ! - Copyright ORBIFLY Décembre 2007 - Disclaimer

ORBIFLY MET'MAP TEAM :

Programmation & Développement : Alexandra Zaïnal
Conception & Développement : Baudouin d'Aumeries
Co-Programmation & Développement : Marc-Olivier Méhu
Soutien technique & logistique : Manuel Goepfert

Contact : metmap@orbifly.com




SOURCES & CREDITS :

   NOAA       Earth
Advisory